Time;durP1;ratioP1;P1;durP2;ratioP2;P2;SDS_P1;SDS_P2;PMS_P1;PMS_P2;Temp;Humidity;BMP_temperature;BMP_pressure;BME280_temperature;BME280_humidity;BME280_pressure;Samples;Min_cycle;Max_cycle;Signal;HPM_P1;HPM_P2
2023/05/10 05:16:10;;;;;;;7.27;4.87;;;12.00;99.90;;;;;;6152890;23;20208;-95
2023/05/10 05:18:37;;;;;;;10.53;5.40;;;11.90;99.90;;;;;;6158984;23;20628;-95
2023/05/10 05:21:13;;;;;;;7.73;5.10;;;11.90;99.90;;;;;;6159157;23;20622;-92
2023/05/10 05:23:40;;;;;;;12.67;5.67;;;11.90;99.90;;;;;;6160781;23;20247;-95
2023/05/10 05:26:07;;;;;;;9.87;5.00;;;11.90;99.90;;;;;;6159902;23;20719;-94
2023/05/10 05:28:37;;;;;;;9.67;5.20;;;11.80;99.90;;;;;;6160662;23;20205;-94
2023/05/10 05:31:03;;;;;;;10.30;5.57;;;11.90;99.90;;;;;;6161526;23;20694;-95
2023/05/10 05:33:31;;;;;;;9.33;5.00;;;11.90;99.90;;;;;;6161062;23;20177;-93
2023/05/10 05:36:00;;;;;;;7.33;5.10;;;12.00;99.90;;;;;;6161368;23;20196;-94
2023/05/10 05:38:27;;;;;;;10.03;5.30;;;12.00;99.90;;;;;;6164277;23;20166;-95
2023/05/10 05:40:54;;;;;;;7.40;4.97;;;12.00;99.90;;;;;;6162375;23;20182;-94
2023/05/10 05:43:21;;;;;;;7.50;5.40;;;12.10;99.90;;;;;;6166711;23;20623;-94
2023/05/10 05:45:48;;;;;;;8.70;5.10;;;12.10;99.90;;;;;;6163066;23;20520;-94
2023/05/10 05:48:15;;;;;;;9.83;5.10;;;12.20;99.90;;;;;;6165693;23;20249;-95
2023/05/10 05:50:43;;;;;;;9.43;4.60;;;12.30;99.90;;;;;;6160749;23;20548;-94
2023/05/10 05:53:10;;;;;;;8.97;5.00;;;12.40;99.90;;;;;;6168684;23;20174;-95
2023/05/10 05:55:37;;;;;;;8.40;4.90;;;12.40;99.90;;;;;;6165815;23;20174;-95
2023/05/10 05:58:04;;;;;;;7.80;4.50;;;12.50;99.90;;;;;;6162168;23;20247;-93
2023/05/10 06:00:31;;;;;;;8.40;5.27;;;12.50;99.90;;;;;;6176497;23;20220;-96
2023/05/10 06:02:58;;;;;;;6.73;4.60;;;12.60;99.90;;;;;;6174577;23;20171;-96
2023/05/10 06:05:24;;;;;;;9.50;4.73;;;12.70;99.90;;;;;;6164008;23;20206;-94
2023/05/10 06:07:53;;;;;;;7.90;4.27;;;12.70;99.90;;;;;;6161899;23;20226;-95
2023/05/10 06:10:20;;;;;;;9.20;4.90;;;12.80;99.90;;;;;;6168048;23;20178;-94
2023/05/10 06:12:46;;;;;;;11.27;4.80;;;12.90;99.90;;;;;;6169954;23;20203;-95
2023/05/10 06:15:13;;;;;;;7.47;4.40;;;13.00;99.90;;;;;;6166257;23;20202;-92
2023/05/10 06:17:40;;;;;;;9.10;4.80;;;13.10;99.90;;;;;;6168196;23;20187;-95
2023/05/10 06:20:09;;;;;;;7.80;4.40;;;13.20;99.90;;;;;;6171602;23;20226;-94
2023/05/10 06:22:38;;;;;;;7.67;4.93;;;13.30;99.90;;;;;;6170483;23;20184;-96
2023/05/10 06:25:08;;;;;;;8.43;4.40;;;13.50;99.90;;;;;;6169787;23;20191;-95
2023/05/10 06:27:35;;;;;;;6.23;4.33;;;13.60;99.90;;;;;;6166681;23;20251;-96
2023/05/10 06:30:03;;;;;;;8.60;4.00;;;13.70;99.90;;;;;;6173197;23;20171;-96
2023/05/10 06:32:30;;;;;;;12.53;4.57;;;13.90;99.90;;;;;;6173726;23;20220;-96
2023/05/10 06:34:57;;;;;;;6.00;4.20;;;14.00;99.90;;;;;;6175002;23;20166;-95
2023/05/10 06:37:24;;;;;;;8.83;4.50;;;14.10;99.90;;;;;;6178343;23;20185;-96
2023/05/10 06:39:51;;;;;;;6.20;4.00;;;14.20;99.90;;;;;;6175521;23;20190;-96
2023/05/10 06:42:19;;;;;;;9.77;4.10;;;14.30;99.90;;;;;;6172174;23;20177;-96
2023/05/10 06:44:46;;;;;;;10.83;4.60;;;14.40;99.90;;;;;;6173523;23;20173;-96
2023/05/10 06:47:13;;;;;;;7.10;4.30;;;14.60;99.90;;;;;;6172009;23;20329;-95
2023/05/10 06:49:40;;;;;;;9.00;4.23;;;14.60;99.90;;;;;;6171484;23;20180;-95
2023/05/10 06:52:06;;;;;;;6.77;3.97;;;14.80;99.90;;;;;;6173772;23;20177;-94
2023/05/10 06:54:33;;;;;;;7.10;4.30;;;14.90;99.90;;;;;;6173244;23;20518;-96
2023/05/10 06:57:02;;;;;;;10.30;4.37;;;15.00;99.90;;;;;;6174979;23;20175;-94
2023/05/10 06:59:31;;;;;;;5.67;4.00;;;15.00;99.90;;;;;;6174500;23;20193;-96
2023/05/10 07:01:57;;;;;;;4.47;3.57;;;15.10;99.90;;;;;;6169442;23;20689;-96
2023/05/10 07:04:24;;;;;;;6.90;3.90;;;15.20;99.90;;;;;;6172557;23;20177;-96
2023/05/10 07:06:51;;;;;;;8.70;3.97;;;15.20;99.90;;;;;;6171624;23;20230;-95
2023/05/10 07:09:19;;;;;;;5.90;3.65;;;15.30;99.90;;;;;;6171743;23;20173;-96
2023/05/10 07:11:46;;;;;;;4.70;3.95;;;15.40;99.90;;;;;;6168542;23;20184;-95
2023/05/10 07:14:13;;;;;;;6.57;4.25;;;15.50;99.90;;;;;;6172175;23;20211;-96
2023/05/10 07:16:41;;;;;;;7.57;4.15;;;15.60;99.90;;;;;;6170551;23;20253;-95
2023/05/10 07:19:08;;;;;;;5.65;3.85;;;15.70;99.90;;;;;;6168726;23;20204;-95
2023/05/10 07:21:35;;;;;;;7.10;3.80;;;15.80;99.90;;;;;;6172740;23;20236;-95
2023/05/10 07:24:02;;;;;;;7.05;3.70;;;15.90;99.90;;;;;;6172463;23;20200;-94
2023/05/10 07:26:29;;;;;;;6.82;3.53;;;16.00;99.90;;;;;;6173584;23;20176;-96
2023/05/10 07:28:56;;;;;;;9.63;3.95;;;16.10;99.90;;;;;;6170656;23;20175;-95
2023/05/10 07:31:23;;;;;;;9.10;3.72;;;16.20;99.90;;;;;;6174476;23;20180;-96
2023/05/10 07:33:51;;;;;;;6.18;4.78;;;16.30;99.90;;;;;;6176621;23;20150;-96
2023/05/10 07:36:18;;;;;;;8.85;4.97;;;16.40;99.90;;;;;;6179907;23;20640;-96
2023/05/10 07:38:45;;;;;;;7.65;3.65;;;16.40;99.90;;;;;;6179219;23;20161;-96
2023/05/10 07:41:12;;;;;;;7.20;3.88;;;16.50;99.90;;;;;;6178742;23;20204;-95
2023/05/10 07:43:39;;;;;;;6.50;3.70;;;16.60;99.90;;;;;;6180870;23;20177;-95
2023/05/10 07:46:07;;;;;;;5.88;3.40;;;16.70;99.90;;;;;;6180245;23;20170;-96
2023/05/10 07:48:34;;;;;;;4.50;3.30;;;16.80;99.90;;;;;;6179337;23;20197;-96
2023/05/10 07:51:02;;;;;;;9.57;3.80;;;16.90;99.90;;;;;;6176839;23;20173;-96
2023/05/10 07:53:29;;;;;;;5.88;3.53;;;16.90;99.90;;;;;;6178629;23;20181;-96
2023/05/10 07:55:59;;;;;;;8.05;3.55;;;17.00;99.90;;;;;;6178182;23;20184;-96
2023/05/10 07:58:26;;;;;;;7.43;3.55;;;17.10;99.90;;;;;;6179595;23;20178;-94
2023/05/10 08:00:56;;;;;;;6.10;3.30;;;17.20;99.90;;;;;;6175191;23;20242;-96
2023/05/10 08:03:23;;;;;;;6.85;3.58;;;17.20;99.90;;;;;;6174077;23;20158;-96
2023/05/10 08:05:50;;;;;;;7.57;3.70;;;17.30;99.90;;;;;;6174542;23;20228;-96
2023/05/10 08:08:19;;;;;;;7.05;3.10;;;17.40;99.90;;;;;;6176325;23;20174;-96
2023/05/10 08:10:46;;;;;;;5.93;3.15;;;17.50;99.90;;;;;;6176427;23;20194;-96
2023/05/10 08:13:13;;;;;;;7.07;3.38;;;17.50;99.90;;;;;;6176308;23;20174;-96
2023/05/10 08:15:40;;;;;;;6.32;2.90;;;17.60;99.90;;;;;;6175601;23;20179;-94
2023/05/10 08:18:07;;;;;;;5.65;3.08;;;17.70;99.90;;;;;;6173778;23;20158;-96
2023/05/10 08:20:34;;;;;;;5.70;3.30;;;17.80;99.90;;;;;;6176151;23;20204;-96
2023/05/10 08:23:01;;;;;;;7.20;3.40;;;17.80;99.90;;;;;;6179017;23;20151;-95
2023/05/10 08:25:29;;;;;;;9.82;3.47;;;17.80;99.90;;;;;;6177500;23;20193;-96
2023/05/10 08:27:56;;;;;;;6.90;3.22;;;17.80;99.90;;;;;;6177435;23;20177;-95
2023/05/10 08:30:23;;;;;;;5.85;2.97;;;17.90;99.90;;;;;;6173129;23;20167;-96
2023/05/10 08:32:50;;;;;;;5.45;3.60;;;18.00;99.90;;;;;;6174355;23;20194;-95
2023/05/10 08:35:17;;;;;;;8.18;3.20;;;18.10;99.90;;;;;;6174051;23;20168;-96
2023/05/10 08:37:44;;;;;;;7.30;3.33;;;18.10;99.90;;;;;;6168266;23;20198;-96
2023/05/10 08:40:13;;;;;;;5.63;3.20;;;18.20;99.90;;;;;;6164706;23;20250;-96
2023/05/10 08:42:44;;;;;;;7.65;3.20;;;18.30;99.90;;;;;;6165815;23;20173;-96
2023/05/10 08:45:12;;;;;;;7.30;3.10;;;18.40;99.90;;;;;;6175981;23;20167;-96
2023/05/10 08:47:40;;;;;;;5.10;3.35;;;18.40;99.90;;;;;;6171496;23;20649;-96
2023/05/10 08:50:08;;;;;;;10.57;3.30;;;18.50;99.90;;;;;;6170639;23;20170;-94
2023/05/10 08:52:39;;;;;;;5.95;3.30;;;18.60;99.90;;;;;;6175704;23;20220;-94
2023/05/10 08:55:07;;;;;;;5.15;3.03;;;18.60;99.90;;;;;;6172746;23;20159;-96
2023/05/10 08:57:34;;;;;;;6.22;3.30;;;18.70;99.90;;;;;;6176874;23;20170;-96
2023/05/10 09:00:03;;;;;;;5.97;2.72;;;18.70;99.90;;;;;;6176720;23;20193;-96
2023/05/10 09:02:30;;;;;;;6.72;2.50;;;18.70;99.90;;;;;;6170211;23;20225;-96
2023/05/10 09:04:57;;;;;;;4.10;2.80;;;18.70;99.90;;;;;;6176381;23;20175;-96
2023/05/10 09:07:24;;;;;;;5.70;3.05;;;18.80;99.90;;;;;;6171258;23;20202;-96
2023/05/10 09:09:53;;;;;;;11.73;3.03;;;18.90;99.90;;;;;;6174574;23;20613;-96
2023/05/10 09:12:20;;;;;;;12.77;2.78;;;18.90;99.90;;;;;;6174809;23;20174;-96
2023/05/10 09:14:47;;;;;;;12.20;3.25;;;18.90;99.90;;;;;;6175713;23;20174;-96
2023/05/10 09:17:15;;;;;;;3.78;2.60;;;19.00;99.90;;;;;;6173594;23;20181;-96
2023/05/10 09:19:42;;;;;;;5.10;2.50;;;19.00;99.90;;;;;;6173310;23;20831;-96
2023/05/10 09:22:10;;;;;;;11.77;2.50;;;19.00;99.90;;;;;;6172906;23;20198;-96
2023/05/10 09:24:42;;;;;;;4.50;2.53;;;19.10;99.90;;;;;;6169989;23;20553;-96
2023/05/10 09:27:09;;;;;;;16.80;2.83;;;19.20;99.90;;;;;;6171930;23;20169;-96
2023/05/10 09:29:43;;;;;;;5.15;2.35;;;19.20;99.90;;;;;;6174617;23;20174;-95
2023/05/10 09:32:10;;;;;;;5.18;2.17;;;19.30;99.90;;;;;;6174451;23;20201;-96
2023/05/10 09:34:40;;;;;;;9.43;2.13;;;19.30;99.90;;;;;;6170452;23;20170;-96
2023/05/10 09:37:07;;;;;;;7.13;2.20;;;19.30;99.90;;;;;;6167941;23;20206;-96
2023/05/10 09:39:35;;;;;;;4.90;2.35;;;19.40;99.90;;;;;;6160561;23;20202;-96
2023/05/10 09:42:04;;;;;;;7.65;2.03;;;19.30;99.90;;;;;;6166490;23;20182;-96
2023/05/10 09:44:33;;;;;;;6.72;2.10;;;19.40;99.90;;;;;;6164481;23;20177;-96
2023/05/10 09:47:00;;;;;;;24.85;2.83;;;19.50;99.90;;;;;;6166926;23;20174;-96
2023/05/10 09:49:26;;;;;;;6.18;1.92;;;19.60;99.90;;;;;;6171588;23;20668;-96
2023/05/10 09:52:04;;;;;;;6.65;2.05;;;19.60;99.90;;;;;;6169630;23;20230;-96
2023/05/10 09:54:30;;;;;;;7.95;2.35;;;19.60;99.90;;;;;;6165102;23;20234;-94
2023/05/10 09:56:57;;;;;;;14.65;2.47;;;19.80;99.90;;;;;;6161788;23;20544;-95
2023/05/10 09:59:27;;;;;;;5.32;1.80;;;19.80;99.90;;;;;;6163272;23;20217;-96
2023/05/10 10:01:56;;;;;;;6.88;2.00;;;19.80;99.30;;;;;;6164235;23;20233;-96
2023/05/10 10:04:23;;;;;;;8.02;1.80;;;19.90;99.70;;;;;;6168769;23;20671;-96
2023/05/10 10:07:02;;;;;;;10.30;2.00;;;19.90;98.70;;;;;;6169092;23;20198;-96
2023/05/10 10:09:29;;;;;;;8.27;2.10;;;19.90;99.80;;;;;;6167380;23;20170;-96
2023/05/10 10:11:57;;;;;;;13.15;3.00;;;19.90;89.80;;;;;;6168759;23;20170;-96
2023/05/10 10:14:24;;;;;;;2.95;1.83;;;20.00;94.80;;;;;;6170011;23;20175;-96
2023/05/10 10:16:51;;;;;;;9.52;1.90;;;20.00;95.10;;;;;;6165229;23;20181;-96
2023/05/10 10:19:19;;;;;;;14.88;2.35;;;20.00;93.80;;;;;;6169256;23;20273;-96
2023/05/10 10:21:46;;;;;;;18.92;2.45;;;20.10;93.70;;;;;;6166969;23;20202;-96
2023/05/10 10:24:14;;;;;;;8.82;2.33;;;20.10;94.00;;;;;;6168658;23;20178;-96
2023/05/10 10:26:42;;;;;;;4.53;2.35;;;20.20;92.40;;;;;;6170064;23;20217;-96
2023/05/10 10:29:21;;;;;;;16.83;2.80;;;20.20;94.50;;;;;;6165240;23;20159;-96
2023/05/10 10:31:55;;;;;;;10.57;2.53;;;20.20;95.20;;;;;;6167816;23;20189;-96
2023/05/10 10:34:27;;;;;;;5.88;2.03;;;20.20;95.30;;;;;;6171640;23;20158;-96
2023/05/10 10:36:56;;;;;;;8.40;2.33;;;20.20;92.50;;;;;;6169551;23;20600;-96
2023/05/10 10:39:25;;;;;;;4.38;1.95;;;20.30;90.90;;;;;;6168631;23;20166;-95
2023/05/10 10:41:54;;;;;;;7.50;2.17;;;20.30;93.00;;;;;;6168935;23;20187;-96
2023/05/10 10:44:34;;;;;;;15.00;2.58;;;20.40;93.30;;;;;;6166683;23;20225;-96
2023/05/10 10:47:08;;;;;;;5.53;1.98;;;20.40;93.60;;;;;;6168348;23;20159;-96
2023/05/10 10:49:39;;;;;;;20.75;3.08;;;20.40;92.60;;;;;;6168313;23;20171;-96
2023/05/10 10:52:28;;;;;;;8.50;2.55;;;20.40;91.10;;;;;;6168776;23;20155;-96
2023/05/10 10:55:01;;;;;;;14.50;2.67;;;20.30;92.80;;;;;;6169633;23;20162;-96
2023/05/10 10:57:29;;;;;;;9.27;2.67;;;20.40;92.50;;;;;;6168246;23;20229;-96
2023/05/10 11:00:25;;;;;;;9.10;2.80;;;20.40;84.00;;;;;;6167464;23;20174;-96
2023/05/10 11:02:53;;;;;;;8.38;2.38;;;20.40;92.50;;;;;;6167438;23;20216;-96
2023/05/10 11:05:35;;;;;;;4.93;2.10;;;20.40;91.50;;;;;;6166366;23;20255;-95
2023/05/10 11:08:09;;;;;;;9.75;2.50;;;20.40;92.40;;;;;;6165675;23;20163;-96
2023/05/10 11:10:37;;;;;;;4.35;2.30;;;20.50;91.30;;;;;;6161105;23;20154;-96
2023/05/10 11:13:05;;;;;;;5.40;2.30;;;20.50;84.10;;;;;;6161385;23;20230;-96
2023/05/10 11:15:39;;;;;;;6.78;2.47;;;20.50;90.10;;;;;;6165654;23;20174;-96
2023/05/10 11:18:19;;;;;;;11.30;2.60;;;20.50;90.60;;;;;;6168200;23;20471;-95
2023/05/10 11:20:51;;;;;;;4.15;2.50;;;20.60;86.80;;;;;;6160878;23;20202;-96
2023/05/10 11:23:19;;;;;;;9.93;2.92;;;20.70;91.20;;;;;;6161630;23;20671;-96
2023/05/10 11:25:49;;;;;;;4.45;2.17;;;20.80;86.20;;;;;;6166010;23;20171;-96
2023/05/10 11:28:18;;;;;;;13.50;2.85;;;20.90;91.20;;;;;;6162371;23;20213;-96
2023/05/10 11:30:45;;;;;;;5.50;2.20;;;20.90;87.00;;;;;;6164858;23;20241;-96
2023/05/10 11:33:16;;;;;;;6.93;2.38;;;20.90;83.60;;;;;;6166134;23;20181;-96
2023/05/10 11:35:45;;;;;;;8.52;2.70;;;21.00;86.20;;;;;;6165901;23;20162;-95
2023/05/10 11:38:13;;;;;;;5.30;2.10;;;21.00;80.00;;;;;;6164429;23;20242;-95
2023/05/10 11:40:41;;;;;;;5.35;2.22;;;21.00;87.30;;;;;;6161408;23;20253;-96
2023/05/10 11:43:11;;;;;;;8.95;2.17;;;21.00;89.40;;;;;;6161199;23;20253;-96
2023/05/10 11:45:38;;;;;;;9.45;2.45;;;21.10;88.10;;;;;;6163127;23;20162;-96
2023/05/10 11:48:05;;;;;;;6.40;2.60;;;21.20;73.70;;;;;;6161013;23;20201;-96
2023/05/10 11:50:32;;;;;;;5.72;2.50;;;21.30;84.80;;;;;;6157908;23;20208;-95
2023/05/10 11:52:59;;;;;;;8.07;2.67;;;21.30;87.40;;;;;;6163975;23;20174;-96
2023/05/10 11:55:26;;;;;;;9.00;2.50;;;21.30;82.40;;;;;;6160933;23;20194;-96
2023/05/10 11:57:53;;;;;;;10.00;2.78;;;21.30;80.90;;;;;;6164243;23;20185;-96
2023/05/10 12:00:22;;;;;;;6.10;2.72;;;21.30;78.90;;;;;;6161400;23;20170;-95
2023/05/10 12:02:49;;;;;;;9.93;2.53;;;21.40;80.60;;;;;;6159712;23;20205;-95
2023/05/10 12:05:17;;;;;;;4.65;2.33;;;21.30;75.00;;;;;;6163139;23;20171;-95
2023/05/10 12:07:44;;;;;;;6.03;2.42;;;21.40;76.90;;;;;;6164369;23;20197;-96
2023/05/10 12:10:14;;;;;;;7.50;2.83;;;21.40;76.00;;;;;;6162794;23;20194;-95
2023/05/10 12:12:42;;;;;;;9.65;2.75;;;21.40;73.60;;;;;;6159787;23;20173;-94
2023/05/10 12:15:17;;;;;;;5.13;2.42;;;21.40;78.60;;;;;;6160149;23;20177;-96
2023/05/10 12:17:46;;;;;;;6.97;3.40;;;21.40;73.70;;;;;;6164194;23;20158;-96
2023/05/10 12:20:20;;;;;;;13.98;3.97;;;21.40;73.20;;;;;;6157892;23;20257;-95
2023/05/10 12:22:50;;;;;;;5.45;3.00;;;21.40;78.40;;;;;;6159367;23;20213;-95
2023/05/10 12:25:17;;;;;;;3.92;2.70;;;21.50;80.20;;;;;;6161880;23;20177;-95
2023/05/10 12:27:50;;;;;;;7.25;2.38;;;21.60;77.50;;;;;;6162079;23;20515;-94
2023/05/10 12:30:21;;;;;;;10.70;2.72;;;21.70;78.20;;;;;;6160894;23;20165;-96
2023/05/10 12:32:50;;;;;;;10.50;2.80;;;21.70;75.80;;;;;;6163630;23;20590;-95
2023/05/10 12:35:17;;;;;;;6.38;2.50;;;21.80;74.60;;;;;;6160990;23;20174;-95
2023/05/10 12:37:44;;;;;;;7.82;2.83;;;21.80;74.30;;;;;;6158770;23;20170;-95
2023/05/10 12:40:12;;;;;;;5.95;2.40;;;21.80;74.00;;;;;;6159513;23;20171;-96
2023/05/10 12:42:39;;;;;;;29.80;3.53;;;21.90;75.00;;;;;;6163766;23;20193;-96
2023/05/10 12:45:08;;;;;;;8.85;2.40;;;21.90;70.30;;;;;;6162594;23;20675;-95
2023/05/10 12:47:35;;;;;;;3.90;2.53;;;21.80;70.10;;;;;;6159497;23;20177;-95
2023/05/10 12:50:04;;;;;;;5.72;2.30;;;21.80;69.10;;;;;;6161052;23;20261;-94
2023/05/10 12:52:32;;;;;;;3.40;2.20;;;21.80;70.70;;;;;;6159341;23;20257;-96
2023/05/10 12:54:59;;;;;;;6.45;2.40;;;21.80;67.80;;;;;;6160832;23;20170;-96
2023/05/10 12:57:26;;;;;;;5.22;2.30;;;21.80;66.80;;;;;;6166589;23;20174;-96
2023/05/10 12:59:53;;;;;;;9.23;2.67;;;21.80;66.90;;;;;;6162133;23;20198;-95
2023/05/10 13:02:21;;;;;;;9.45;2.30;;;21.80;63.50;;;;;;6159218;23;20191;-95
2023/05/10 13:04:48;;;;;;;6.10;2.60;;;21.80;64.60;;;;;;6160186;23;20177;-94
2023/05/10 13:07:16;;;;;;;6.07;2.20;;;21.80;64.50;;;;;;6160140;23;20504;-95
2023/05/10 13:09:43;;;;;;;4.30;2.33;;;21.90;64.20;;;;;;6158607;23;20257;-95
2023/05/10 13:12:10;;;;;;;7.13;2.60;;;21.90;65.70;;;;;;6159961;23;20171;-94
2023/05/10 13:14:37;;;;;;;6.28;2.47;;;22.00;65.60;;;;;;6159844;23;20174;-95
2023/05/10 13:17:03;;;;;;;7.05;2.50;;;22.10;65.30;;;;;;6163229;23;20174;-95
2023/05/10 13:19:30;;;;;;;4.70;2.20;;;22.10;64.00;;;;;;6164638;23;20170;-96
2023/05/10 13:21:57;;;;;;;4.70;2.20;;;22.10;61.80;;;;;;6164848;23;20221;-96
2023/05/10 13:24:25;;;;;;;4.93;2.30;;;22.00;59.60;;;;;;6160060;23;20187;-94
2023/05/10 13:26:52;;;;;;;5.93;2.75;;;22.00;57.80;;;;;;6159895;23;20179;-94
2023/05/10 13:29:20;;;;;;;7.82;2.55;;;22.00;59.20;;;;;;6162886;23;20177;-95
2023/05/10 13:31:47;;;;;;;5.35;2.75;;;22.00;60.40;;;;;;6161443;23;20254;-95
2023/05/10 13:34:14;;;;;;;5.70;2.20;;;22.00;59.60;;;;;;6161347;23;20253;-95
2023/05/10 13:36:41;;;;;;;6.25;2.47;;;22.00;58.20;;;;;;6159229;23;20174;-95
2023/05/10 13:39:08;;;;;;;6.78;3.05;;;22.00;58.20;;;;;;6159690;23;20716;-95
2023/05/10 13:41:36;;;;;;;6.63;2.65;;;22.10;58.70;;;;;;6159929;23;20523;-96
2023/05/10 13:44:03;;;;;;;6.85;2.70;;;22.10;59.00;;;;;;6159354;23;20171;-95
2023/05/10 13:46:30;;;;;;;11.15;2.90;;;22.20;57.40;;;;;;6159089;23;20257;-95
2023/05/10 13:48:57;;;;;;;5.43;2.65;;;22.20;58.70;;;;;;6159144;23;20221;-96
2023/05/10 13:51:24;;;;;;;7.05;2.33;;;22.20;57.40;;;;;;6162759;23;20171;-95
2023/05/10 13:53:51;;;;;;;5.88;2.95;;;22.10;54.80;;;;;;6161731;23;20171;-96
2023/05/10 13:56:18;;;;;;;5.47;2.40;;;22.00;52.90;;;;;;6159650;23;20174;-96
2023/05/10 13:58:47;;;;;;;9.60;2.53;;;22.10;48.30;;;;;;6158512;23;20229;-94
2023/05/10 14:01:14;;;;;;;4.47;2.70;;;22.10;53.30;;;;;;6160042;23;20621;-96
2023/05/10 14:03:40;;;;;;;5.72;3.10;;;22.10;52.30;;;;;;6160494;23;20258;-95
2023/05/10 14:06:08;;;;;;;9.40;3.10;;;22.20;53.40;;;;;;6158432;23;20201;-96
2023/05/10 14:08:35;;;;;;;4.60;2.47;;;22.20;48.50;;;;;;6158514;23;20249;-93
2023/05/10 14:11:02;;;;;;;11.13;3.38;;;22.20;55.40;;;;;;6159008;23;20192;-95
2023/05/10 14:13:29;;;;;;;9.38;2.95;;;22.20;75.80;;;;;;6158475;23;20841;-94
2023/05/10 14:16:00;;;;;;;3.72;2.63;;;22.30;54.20;;;;;;6158402;23;20193;-94
2023/05/10 14:18:26;;;;;;;9.57;2.65;;;22.40;53.20;;;;;;6159006;23;20185;-96
2023/05/10 14:20:54;;;;;;;10.30;2.60;;;22.30;53.70;;;;;;6159422;23;20194;-96
2023/05/10 14:23:23;;;;;;;7.22;2.95;;;22.30;54.70;;;;;;6158471;23;20297;-95
2023/05/10 14:25:50;;;;;;;5.85;2.47;;;22.30;53.10;;;;;;6157789;23;20174;-95
2023/05/10 14:28:18;;;;;;;8.48;2.72;;;22.30;53.20;;;;;;6159180;23;20255;-95
2023/05/10 14:30:45;;;;;;;7.22;2.67;;;22.30;53.30;;;;;;6158251;23;20177;-94
2023/05/10 14:33:13;;;;;;;6.60;2.90;;;22.40;53.40;;;;;;6159716;23;20643;-95
2023/05/10 14:35:40;;;;;;;7.53;2.50;;;22.40;44.30;;;;;;6158200;23;20171;-93
2023/05/10 14:38:07;;;;;;;11.05;2.40;;;22.40;48.10;;;;;;6157775;23;20209;-93
2023/05/10 14:40:34;;;;;;;7.47;4.45;;;22.40;47.40;;;;;;6157664;23;20170;-94
2023/05/10 14:43:01;;;;;;;5.57;3.30;;;22.40;47.40;;;;;;6160247;23;20217;-95
2023/05/10 14:45:27;;;;;;;5.85;2.85;;;22.50;46.40;;;;;;6160438;23;20170;-95
2023/05/10 14:47:54;;;;;;;6.47;2.67;;;22.50;48.30;;;;;;6160259;23;20481;-96
2023/05/10 14:50:22;;;;;;;4.03;2.50;;;22.40;43.70;;;;;;6162706;23;20257;-96
2023/05/10 14:52:50;;;;;;;6.25;2.45;;;22.40;44.90;;;;;;6166254;23;20257;-96
2023/05/10 14:55:17;;;;;;;10.77;3.10;;;22.40;35.50;;;;;;6165073;23;20174;-96
2023/05/10 14:57:47;;;;;;;6.50;2.53;;;22.30;45.00;;;;;;6161727;23;20190;-96
2023/05/10 15:00:16;;;;;;;5.68;2.72;;;22.30;47.30;;;;;;6162109;23;20217;-95
2023/05/10 15:02:43;;;;;;;4.63;2.45;;;22.40;49.60;;;;;;6163744;23;20193;-96
2023/05/10 15:05:10;;;;;;;5.05;2.70;;;22.40;42.20;;;;;;6158151;23;20221;-96
2023/05/10 15:07:38;;;;;;;6.47;2.67;;;22.40;38.10;;;;;;6157492;23;20170;-94
2023/05/10 15:10:06;;;;;;;7.85;2.55;;;22.40;45.20;;;;;;6157043;23;20213;-94
2023/05/10 15:12:33;;;;;;;5.82;2.70;;;22.40;48.40;;;;;;6156066;23;20171;-95
2023/05/10 15:14:59;;;;;;;4.97;2.70;;;22.40;45.90;;;;;;6157675;23;20170;-94
2023/05/10 15:17:26;;;;;;;4.00;2.97;;;22.50;45.30;;;;;;6157055;23;20659;-94
2023/05/10 15:19:53;;;;;;;5.00;2.60;;;22.50;46.00;;;;;;6157311;23;20162;-93
2023/05/10 15:22:20;;;;;;;3.95;2.78;;;22.70;46.50;;;;;;6156905;23;20199;-95
2023/05/10 15:24:49;;;;;;;5.30;2.42;;;22.80;45.30;;;;;;6158579;23;20177;-95
2023/05/10 15:27:15;;;;;;;5.55;2.78;;;22.90;43.90;;;;;;6158025;23;20180;-95
2023/05/10 15:29:42;;;;;;;4.25;2.38;;;22.80;44.40;;;;;;6157826;23;20494;-94
2023/05/10 15:32:09;;;;;;;6.72;2.63;;;22.80;44.60;;;;;;6157327;23;20170;-93
2023/05/10 15:34:36;;;;;;;9.20;2.88;;;22.70;42.40;;;;;;6158351;23;20185;-94
2023/05/10 15:37:03;;;;;;;6.53;2.53;;;22.60;41.90;;;;;;6157147;23;20174;-92
2023/05/10 15:39:30;;;;;;;7.00;2.53;;;22.50;39.80;;;;;;6157579;23;20177;-96
2023/05/10 15:41:58;;;;;;;4.60;2.40;;;22.40;38.80;;;;;;6160716;23;20190;-94
2023/05/10 15:44:26;;;;;;;3.38;2.70;;;22.40;40.30;;;;;;6159165;23;20253;-96
2023/05/10 15:46:53;;;;;;;7.03;2.78;;;22.30;32.60;;;;;;6160130;23;20205;-96
2023/05/10 15:49:20;;;;;;;4.57;2.90;;;22.30;35.80;;;;;;6174397;23;20166;-96
2023/05/10 15:51:47;;;;;;;4.05;2.58;;;22.30;31.80;;;;;;6171946;23;20193;-96
2023/05/10 15:54:13;;;;;;;5.35;2.70;;;22.30;29.20;;;;;;6159857;23;20167;-95
2023/05/10 15:56:41;;;;;;;8.90;2.58;;;22.30;37.10;;;;;;6159271;23;20170;-96
2023/05/10 15:59:10;;;;;;;4.25;2.58;;;22.20;40.70;;;;;;6159577;23;20177;-95
2023/05/10 16:01:37;;;;;;;4.32;2.90;;;22.20;41.30;;;;;;6158840;23;20203;-96
2023/05/10 16:04:04;;;;;;;4.43;2.60;;;22.20;44.20;;;;;;6158744;23;20194;-96
2023/05/10 16:06:31;;;;;;;6.00;2.78;;;22.20;43.90;;;;;;6158991;23;20167;-96
2023/05/10 16:08:58;;;;;;;3.53;2.70;;;22.30;41.70;;;;;;6159173;23;20190;-94
2023/05/10 16:11:25;;;;;;;8.77;3.25;;;22.30;44.10;;;;;;6158003;23;20176;-96
2023/05/10 16:13:52;;;;;;;3.80;2.90;;;22.30;43.80;;;;;;6159361;23;20197;-96
2023/05/10 16:16:20;;;;;;;6.47;2.70;;;22.20;42.80;;;;;;6159308;23;20175;-93
2023/05/10 16:18:47;;;;;;;9.00;3.55;;;22.20;40.70;;;;;;6157543;23;20178;-94
2023/05/10 16:21:14;;;;;;;12.30;3.90;;;22.10;39.90;;;;;;6158152;23;20702;-96
2023/05/10 16:23:42;;;;;;;3.00;2.70;;;22.10;40.30;;;;;;6159219;23;20282;-94
2023/05/10 16:26:09;;;;;;;4.10;2.95;;;22.10;40.60;;;;;;6159569;23;20581;-96
2023/05/10 16:28:36;;;;;;;7.38;3.00;;;22.10;38.50;;;;;;6160078;23;20249;-96
2023/05/10 16:31:03;;;;;;;5.22;3.03;;;21.90;36.20;;;;;;6158898;23;20178;-95
2023/05/10 16:33:31;;;;;;;7.00;3.00;;;21.70;42.10;;;;;;6163318;23;20171;-96
2023/05/10 16:35:58;;;;;;;5.72;2.90;;;21.60;40.40;;;;;;6167060;23;20311;-95
2023/05/10 16:38:25;;;;;;;4.25;2.75;;;21.40;38.90;;;;;;6163441;23;20693;-96
2023/05/10 16:40:52;;;;;;;6.47;2.95;;;21.40;40.70;;;;;;6166201;23;20232;-96
2023/05/10 16:43:19;;;;;;;4.00;2.90;;;21.50;38.60;;;;;;6174102;23;20213;-96
2023/05/10 16:45:46;;;;;;;8.48;2.92;;;21.60;30.50;;;;;;6167060;23;20167;-96
2023/05/10 16:48:12;;;;;;;9.75;3.13;;;21.70;32.20;;;;;;6169448;23;20170;-96
2023/05/10 16:50:43;;;;;;;6.18;2.90;;;21.90;39.20;;;;;;6171380;23;20222;-96
2023/05/10 16:53:10;;;;;;;6.32;2.70;;;22.00;39.50;;;;;;6171718;23;20194;-96
2023/05/10 16:55:37;;;;;;;8.65;2.72;;;22.10;32.00;;;;;;6172999;23;20174;-96
2023/05/10 16:58:04;;;;;;;7.65;4.10;;;22.30;60.20;;;;;;6164387;23;20175;-96
2023/05/10 17:00:31;;;;;;;8.23;6.30;;;22.60;32.60;;;;;;6169995;23;20261;-96
2023/05/10 17:02:58;;;;;;;5.70;3.10;;;22.80;35.00;;;;;;6176956;23;20194;-96
2023/05/10 17:05:26;;;;;;;5.18;3.00;;;23.00;28.90;;;;;;6161825;23;20185;-96
2023/05/10 17:07:54;;;;;;;7.10;2.50;;;23.10;38.30;;;;;;6160675;23;20202;-95
2023/05/10 17:10:21;;;;;;;4.22;2.85;;;22.80;32.60;;;;;;6158245;23;20178;-94
2023/05/10 17:12:48;;;;;;;5.15;3.10;;;22.40;35.20;;;;;;6158128;23;20175;-95
2023/05/10 17:15:17;;;;;;;5.63;3.30;;;21.90;32.70;;;;;;6158028;23;20227;-95
2023/05/10 17:17:44;;;;;;;4.18;2.78;;;21.60;35.90;;;;;;6161476;23;20221;-96
2023/05/10 17:20:11;;;;;;;3.90;3.20;;;21.60;29.50;;;;;;6162166;23;20194;-96
2023/05/10 17:22:38;;;;;;;4.60;2.97;;;21.90;29.90;;;;;;6158478;23;20204;-96
2023/05/10 17:25:07;;;;;;;5.82;2.97;;;22.20;34.50;;;;;;6159478;23;20175;-96
2023/05/10 17:27:34;;;;;;;5.68;2.92;;;22.60;36.90;;;;;;6158857;23;20249;-95
2023/05/10 17:30:01;;;;;;;4.95;3.10;;;23.00;34.40;;;;;;6159688;23;20170;-96
2023/05/10 17:32:28;;;;;;;5.80;2.92;;;23.20;35.00;;;;;;6159319;23;20257;-96
2023/05/10 17:34:54;;;;;;;3.58;3.10;;;23.50;33.40;;;;;;6159611;23;20182;-96
2023/05/10 17:37:21;;;;;;;4.53;3.25;;;23.50;33.00;;;;;;6163396;23;20314;-96
2023/05/10 17:39:48;;;;;;;4.93;2.85;;;23.60;30.30;;;;;;6160606;23;20185;-96
2023/05/10 17:42:17;;;;;;;4.82;2.70;;;23.40;28.20;;;;;;6158941;23;20178;-96
2023/05/10 17:44:44;;;;;;;6.38;2.90;;;22.80;30.50;;;;;;6159974;23;20174;-93
2023/05/10 17:47:11;;;;;;;3.95;2.97;;;22.10;29.80;;;;;;6158236;23;20177;-94
2023/05/10 17:49:38;;;;;;;3.95;2.88;;;21.50;28.30;;;;;;6157553;23;20198;-93
2023/05/10 17:52:06;;;;;;;6.20;2.80;;;20.90;31.00;;;;;;6157902;23;20162;-95
2023/05/10 17:54:33;;;;;;;3.65;2.80;;;20.50;30.20;;;;;;6157998;23;20227;-94
2023/05/10 17:57:00;;;;;;;6.90;3.20;;;20.20;30.80;;;;;;6157518;23;20172;-94
2023/05/10 17:59:28;;;;;;;4.70;2.80;;;20.00;31.30;;;;;;6158168;23;20171;-94
2023/05/10 18:01:55;;;;;;;6.25;2.80;;;19.90;32.00;;;;;;6158125;23;20229;-95
2023/05/10 18:04:21;;;;;;;3.92;2.95;;;19.70;33.20;;;;;;6157365;23;20191;-93